Latest Weather Observations for Luncheon Hill

IDT60801

Issued at 6:21 pm EST Monday 1 June 2020 (issued every 10 minutes, with the page automatically refreshed every 10 minutes)

About weather observations | Map of weather stations | Latest weather observations for TAS | Other Formats
Station Details ID: 091259 Name: LUNCHEON HILL (FORESTRY) Lat: -41.15 Lon: 145.15 Height: 344.0 m
Data from the previous 72 hours. | See also: Recent months at Luncheon Hill
Date/Time
EST
Temp
°C
App
Temp
°C
Dew
Point
°C
Rel
Hum
%
Delta-T
°C
Wind Press
QNH
hPa
Press
MSL
hPa
Rain since
9am
mm
Dir  Spd
km/h
Gust
km/h
Spd
kts
Gust
kts
01/06:00pm 5.3 -0.7 5.2 99 0.0 W 26 39 14 21 - - 1.4
01/05:53pm 5.4 -1.0 5.3 99 0.0 SSW 28 46 15 25 - - 1.4
01/05:30pm 5.6 -0.7 5.5 99 0.0 S 28 43 15 23 - - 1.4
01/05:17pm 5.6 -1.7 5.5 99 0.0 SSW 33 52 18 28 - - 1.4
01/05:00pm 5.7 -1.4 5.4 98 0.1 SW 32 48 17 26 - - 1.4
01/04:30pm 6.2 -0.8 6.1 99 0.0 SSW 32 52 17 28 - - 1.4
01/04:00pm 6.8 0.0 6.7 99 0.0 SSW 32 54 17 29 - - 1.4
01/03:30pm 7.7 0.9 7.6 99 0.0 S 33 52 18 28 - - 1.4
01/03:00pm 8.5 2.1 8.4 99 0.0 SSW 32 50 17 27 - - 1.4
01/02:51pm 8.9 2.5 8.6 98 0.1 SSW 32 50 17 27 - - 1.4
01/02:49pm 9.1 3.5 8.8 98 0.1 SSW 28 44 15 24 - - 1.4
01/02:30pm 10.5 7.8 10.2 98 0.2 SSW 15 20 8 11 - - 1.2
01/02:00pm 10.5 10.1 9.9 96 0.3 W 2 11 1 6 - - 1.0
01/01:30pm 10.3 10.2 9.5 95 0.4 CALM 0 0 0 0 - - 1.0
01/01:00pm 10.2 10.1 9.6 96 0.3 CALM 0 0 0 0 - - 1.0
01/12:30pm 10.4 9.1 9.9 97 0.3 NW 7 9 4 5 - - 0.8
01/12:00pm 9.6 7.0 9.3 98 0.2 N 13 17 7 9 - - 0.6
01/11:30am 10.6 8.7 10.4 99 0.1 N 11 13 6 7 - - 0.4
01/11:00am 9.8 7.6 9.5 98 0.2 NNE 11 13 6 7 - - 0.0
01/10:30am 10.3 7.6 10.3 100 0.0 NNE 15 20 8 11 - - 0.0
01/10:00am 10.2 7.5 10.2 100 0.0 NE 15 17 8 9 - - 0.0
01/09:30am 9.2 6.6 9.2 100 0.0 NNE 13 17 7 9 - - 0.0
01/09:00am 8.8 6.1 8.8 100 0.0 NNE 13 15 7 8 - - 3.4
01/08:30am 8.7 4.2 8.7 100 0.0 NNE 22 30 12 16 - - 2.8
01/08:00am 8.6 4.1 8.6 100 0.0 NE 22 26 12 14 - - 2.4
01/07:30am 8.5 4.4 8.5 100 0.0 NE 20 26 11 14 - - 2.4
01/07:00am 8.5 4.0 8.5 100 0.0 NNE 22 28 12 15 - - 2.4
01/06:30am 8.3 3.0 8.3 100 0.0 NNE 26 32 14 17 - - 2.4
01/06:00am 8.1 3.8 7.8 98 0.1 NE 20 26 11 14 - - 2.2
01/05:30am 8.1 3.5 8.0 99 0.0 NNE 22 26 12 14 - - 2.0
01/05:00am 8.1 2.7 8.0 99 0.0 NNE 26 35 14 19 - - 2.0
01/04:30am 8.0 3.0 7.9 99 0.0 NNE 24 30 13 16 - - 2.0
01/04:00am 7.9 2.8 7.8 99 0.0 NNE 24 28 13 15 - - 1.8
01/03:30am 7.9 3.2 7.8 99 0.0 NNE 22 26 12 14 - - 1.8
01/03:00am 7.9 2.8 7.8 99 0.0 NNE 24 32 13 17 - - 1.8
01/02:30am 7.7 3.0 7.6 99 0.0 NNE 22 28 12 15 - - 1.8
01/02:00am 7.7 3.3 7.6 99 0.0 NNE 20 26 11 14 - - 1.8
01/01:30am 7.5 2.7 7.2 98 0.1 NNE 22 30 12 16 - - 1.8
01/01:00am 7.7 2.5 7.4 98 0.1 NNE 24 30 13 16 - - 1.8
01/12:30am 7.6 2.0 7.3 98 0.1 N 26 32 14 17 - - 1.8
01/12:00am 7.6 2.0 7.3 98 0.1 NNE 26 33 14 18 - - 1.8
 
Date/Time
EST
Temp
°C
App
Temp
°C
Dew
Point
°C
Rel
Hum
%
Delta-T
°C
Wind Press
QNH
hPa
Press
MSL
hPa
Rain since
9am
mm
Dir  Spd
km/h
Gust
km/h
Spd
kts
Gust
kts
31/11:30pm 7.5 1.9 7.2 98 0.1 N 26 32 14 17 - - 1.8
31/11:00pm 7.7 2.5 7.4 98 0.1 NNE 24 32 13 17 - - 1.8
31/10:30pm 7.8 2.6 7.4 97 0.2 N 24 28 13 15 - - 1.8
31/10:00pm 7.8 2.6 7.2 96 0.3 N 24 30 13 16 - - 1.8
31/09:30pm 7.6 2.4 7.3 98 0.1 N 24 30 13 16 - - 1.8
31/09:00pm 7.4 1.9 7.4 100 0.0 N 26 32 14 17 - - 1.8
31/08:30pm 7.3 2.1 7.3 100 0.0 N 24 30 13 16 - - 1.8
31/08:00pm 7.2 2.3 7.1 99 0.0 N 22 28 12 15 - - 1.8
31/07:30pm 7.1 2.6 7.0 99 0.0 N 20 24 11 13 - - 1.8
31/07:00pm 7.0 3.8 6.7 98 0.1 NNW 13 17 7 9 - - 1.8
31/06:30pm 7.2 1.5 6.6 96 0.3 NNW 26 35 14 19 - - 1.6
31/06:00pm 7.2 2.7 7.1 99 0.0 N 20 26 11 14 - - 1.0
31/05:30pm 7.2 2.7 6.9 98 0.1 N 20 26 11 14 - - 1.0
31/05:00pm 7.8 2.9 7.1 95 0.3 N 22 28 12 15 - - 0.6
31/04:30pm 8.2 4.5 6.3 88 0.9 NW 15 20 8 11 - - 0.6
31/04:00pm 8.8 5.6 6.8 87 0.9 W 13 20 7 11 - - 0.6
31/03:30pm 9.6 5.0 6.5 81 1.5 WNW 20 26 11 14 - - 0.6
31/03:00pm 10.8 5.3 7.5 80 1.6 NW 26 43 14 23 - - 0.6
31/02:30pm 9.2 5.5 8.0 92 0.6 WNW 17 28 9 15 - - 0.6
31/02:00pm 10.3 6.3 8.4 88 0.9 N 19 24 10 13 - - 0.6
31/01:30pm 9.0 4.5 8.6 97 0.2 N 22 28 12 15 - - 0.6
31/01:00pm 9.7 5.6 8.5 92 0.6 N 20 30 11 16 - - 0.2
31/12:30pm 10.7 5.4 8.6 87 1.1 N 26 35 14 19 - - 0.2
31/12:00pm 10.2 5.7 8.6 90 0.8 N 22 35 12 19 - - 0.2
31/11:30am 10.0 5.7 9.2 95 0.4 NNW 22 35 12 19 - - 0.2
31/11:00am 10.3 5.9 8.9 91 0.7 NNW 22 26 12 14 - - 0.2
31/10:30am 9.2 4.8 8.9 98 0.1 NNW 22 28 12 15 - - 0.2
31/10:00am 9.4 6.1 9.4 100 0.0 NNW 17 20 9 11 - - 0.2
31/09:30am 7.7 3.4 7.7 100 0.0 NNW 20 26 11 14 - - 0.2
31/09:00am 7.4 3.2 7.3 99 0.0 NW 19 24 10 13 - - 11.0
31/08:30am 7.6 3.8 7.5 99 0.0 NNW 17 22 9 12 - - 10.6
31/08:00am 7.4 3.0 7.3 99 0.0 NW 20 22 11 12 - - 10.0
31/07:30am 7.0 2.7 7.0 100 0.0 NW 19 20 10 11 - - 10.0
31/07:00am 7.1 3.2 7.1 100 0.0 NW 17 20 9 11 - - 10.0
31/06:30am 7.2 3.3 7.2 100 0.0 WNW 17 20 9 11 - - 10.0
31/06:00am 7.3 3.4 7.3 100 0.0 W 17 24 9 13 - - 10.0
31/05:30am 7.7 3.9 7.7 100 0.0 W 17 24 9 13 - - 10.0
31/05:00am 8.0 4.3 8.0 100 0.0 WNW 17 24 9 13 - - 10.0
31/04:30am 8.3 4.3 8.3 100 0.0 W 19 30 10 16 - - 10.0
31/04:00am 8.2 4.6 8.2 100 0.0 WNW 17 24 9 13 - - 10.0
31/03:30am 8.0 3.4 8.0 100 0.0 WNW 22 32 12 17 - - 10.0
31/03:00am 7.6 1.3 7.5 99 0.0 WNW 30 46 16 25 - - 8.2
31/02:44am 7.5 -1.9 7.1 97 0.2 WNW 46 67 25 36 - - 6.4
31/02:40am 7.5 -0.6 7.1 97 0.2 WNW 39 67 21 36 - - 6.0
31/02:35am 8.2 1.1 7.9 98 0.1 NW 35 57 19 31 - - 4.6
31/02:32am 9.4 2.2 9.3 99 0.1 NNW 37 56 20 30 - - 4.4
31/02:30am 9.4 1.9 9.3 99 0.1 NNW 39 56 21 30 - - 4.4
31/02:17am 9.2 1.6 9.2 100 0.0 NNW 39 57 21 31 - - 4.4
31/02:00am 9.1 1.1 9.1 100 0.0 NNW 41 56 22 30 - - 4.4
31/01:30am 8.9 0.5 8.9 100 0.0 NNW 43 57 23 31 - - 3.6
31/01:13am 9.0 -0.4 8.9 99 0.0 NNW 48 85 26 46 - - 3.4
31/01:10am 9.0 0.0 8.9 99 0.0 NNW 46 67 25 36 - - 3.4
31/01:00am 9.2 0.3 9.1 99 0.1 NNW 46 61 25 33 - - 3.2
31/12:35am 9.6 1.2 9.5 99 0.1 N 44 67 24 36 - - 2.4
31/12:30am 9.7 1.3 9.6 99 0.1 N 44 61 24 33 - - 2.2
31/12:00am 9.9 1.1 9.4 97 0.3 N 46 69 25 37 - - 1.2
 
Date/Time
EST
Temp
°C
App
Temp
°C
Dew
Point
°C
Rel
Hum
%
Delta-T
°C
Wind Press
QNH
hPa
Press
MSL
hPa
Rain since
9am
mm
Dir  Spd
km/h
Gust
km/h
Spd
kts
Gust
kts
30/11:37pm 10.2 1.8 9.1 93 0.6 N 43 67 23 36 - - 0.4
30/11:30pm 10.3 1.8 9.1 92 0.6 N 44 59 24 32 - - 0.2
30/11:19pm 10.4 1.1 9.0 91 0.7 N 48 67 26 36 - - 0.0
30/11:00pm 11.1 1.6 8.5 84 1.3 N 48 65 26 35 - - 0.0
30/10:30pm 11.3 2.1 8.2 81 1.5 N 46 69 25 37 - - 0.0
30/10:00pm 11.0 1.8 8.1 82 1.4 N 46 67 25 36 - - 0.0
30/09:30pm 10.6 1.9 7.8 83 1.4 N 43 63 23 34 - - 0.0
30/09:00pm 10.4 1.6 8.0 85 1.2 NNE 44 65 24 35 - - 0.0
30/08:51pm 10.4 1.7 7.8 84 1.3 NNE 43 65 23 35 - - 0.0
30/08:30pm 10.3 2.0 7.7 84 1.3 NNE 41 56 22 30 - - 0.0
30/08:00pm 9.9 1.5 7.2 83 1.3 NNE 41 56 22 30 - - 0.0
30/07:30pm 10.0 1.4 6.7 80 1.6 NNE 41 52 22 28 - - 0.0
30/07:00pm 9.9 1.4 6.8 81 1.5 NNE 41 57 22 31 - - 0.0
30/06:30pm 9.9 1.1 7.3 84 1.3 NNE 43 57 23 31 - - 0.0
30/06:00pm 10.2 1.5 7.8 85 1.2 NNE 43 57 23 31 - - 0.0
30/05:34pm 10.0 1.4 8.1 88 0.9 NNE 43 67 23 36 - - 0.0
30/05:30pm 10.0 1.4 8.1 88 0.9 NNE 43 57 23 31 - - 0.0
30/05:14pm 10.2 1.6 8.3 88 0.9 NNE 43 63 23 34 - - 0.0
30/05:00pm 10.2 1.6 8.3 88 0.9 NNE 43 56 23 30 - - 0.0
30/04:41pm 10.5 2.7 8.3 86 1.1 NNE 39 57 21 31 - - 0.0
30/04:30pm 10.4 1.7 8.3 87 1.0 NNE 44 59 24 32 - - 0.0
30/04:21pm 10.5 2.3 8.3 86 1.1 NNE 41 59 22 32 - - 0.0
30/04:00pm 10.7 2.0 8.3 85 1.2 NNE 44 57 24 31 - - 0.0
30/03:30pm 11.1 2.4 8.3 83 1.4 NNE 44 61 24 33 - - 0.0
30/03:00pm 11.3 1.8 8.3 82 1.5 N 48 69 26 37 - - 0.0
30/02:34pm 11.6 2.1 8.3 80 1.7 N 48 67 26 36 - - 0.0
30/02:30pm 11.9 3.3 8.7 81 1.6 N 44 59 24 32 - - 0.0
30/02:00pm 12.4 3.4 8.7 78 1.9 N 46 59 25 32 - - 0.0
30/01:30pm 12.1 3.6 9.3 83 1.4 N 44 65 24 35 - - 0.0
30/01:00pm 13.5 4.7 9.4 76 2.1 N 46 69 25 37 - - 0.0
30/12:32pm 12.9 5.3 9.0 77 2.0 N 39 63 21 34 - - 0.0
30/12:30pm 13.6 5.8 9.8 78 2.0 N 41 54 22 29 - - 0.0
30/12:00pm 13.1 3.5 9.5 79 1.9 N 50 70 27 38 - - 0.0
30/11:33am 12.6 4.8 9.6 82 1.6 N 41 59 22 32 - - 0.0
30/11:30am 12.9 5.2 10.1 83 1.5 N 41 57 22 31 - - 0.0
30/11:00am 11.7 3.8 9.4 86 1.2 N 41 56 22 30 - - 0.0
30/10:30am 11.7 3.9 9.8 88 1.0 N 41 52 22 28 - - 0.0
30/10:00am 11.5 4.5 9.8 89 0.9 N 37 46 20 25 - - 0.0
30/09:30am 11.4 4.8 10.0 91 0.7 N 35 48 19 26 - - 0.0
30/09:00am 10.7 4.5 10.1 96 0.3 N 33 46 18 25 - - 0.2
30/08:30am 10.1 4.0 9.8 98 0.2 N 32 44 17 24 - - 0.2
30/08:00am 10.1 4.1 10.0 99 0.1 N 32 43 17 23 - - 0.2
30/07:30am 10.0 3.9 9.9 99 0.1 N 32 39 17 21 - - 0.2
30/07:00am 10.1 3.9 10.0 99 0.1 N 33 44 18 24 - - 0.2
30/06:30am 10.0 3.9 9.9 99 0.1 N 32 44 17 24 - - 0.2
30/06:00am 10.0 3.9 9.9 99 0.1 N 32 39 17 21 - - 0.2
30/05:30am 10.2 4.5 9.9 98 0.2 N 30 37 16 20 - - 0.2
30/05:00am 10.3 4.6 9.8 97 0.3 N 30 39 16 21 - - 0.2
30/04:30am 10.4 4.8 10.1 98 0.2 N 30 37 16 20 - - 0.2
30/04:00am 10.4 4.8 10.2 99 0.1 N 30 41 16 22 - - 0.2
30/03:30am 10.4 4.3 10.4 100 0.0 N 33 41 18 22 - - 0.2
30/03:00am 10.3 4.7 10.3 100 0.0 N 30 39 16 21 - - 0.2
30/02:30am 10.1 5.2 10.0 99 0.1 NNE 26 33 14 18 - - 0.2
30/02:00am 9.8 4.8 9.7 99 0.1 NNE 26 32 14 17 - - 0.2
30/01:30am 9.8 4.8 9.7 99 0.1 NNE 26 30 14 16 - - 0.2
30/01:00am 9.8 5.2 9.7 99 0.1 NNE 24 30 13 16 - - 0.2
30/12:30am 9.7 5.4 9.2 97 0.3 NNE 22 30 12 16 - - 0.2
30/12:00am 9.8 5.1 9.2 96 0.3 N 24 30 13 16 - - 0.2
 
Date/Time
EST
Temp
°C
App
Temp
°C
Dew
Point
°C
Rel
Hum
%
Delta-T
°C
Wind Press
QNH
hPa
Press
MSL
hPa
Rain since
9am
mm
Dir  Spd
km/h
Gust
km/h
Spd
kts
Gust
kts
29/11:30pm 9.7 5.4 9.2 97 0.3 N 22 28 12 15 - - 0.2
29/11:00pm 9.6 5.3 9.5 99 0.1 N 22 28 12 15 - - 0.2
29/10:30pm 9.6 5.0 9.5 99 0.1 N 24 30 13 16 - - 0.2
29/10:00pm 9.7 5.5 9.6 99 0.1 N 22 28 12 15 - - 0.2
29/09:30pm 9.7 5.8 9.6 99 0.1 N 20 28 11 15 - - 0.2
29/09:00pm 9.8 5.2 9.7 99 0.1 N 24 30 13 16 - - 0.2
29/08:30pm 9.8 4.8 9.7 99 0.1 N 26 32 14 17 - - 0.2
29/08:00pm 9.9 5.3 9.8 99 0.1 N 24 33 13 18 - - 0.2
29/07:30pm 9.9 5.3 9.8 99 0.1 N 24 30 13 16 - - 0.2
29/07:00pm 10.0 5.4 9.7 98 0.2 N 24 32 13 17 - - 0.2
29/06:30pm 10.1 5.5 9.6 97 0.3 N 24 30 13 16 - - 0.2

Other formats

Comma delimited format used in spreadsheet applications
http://www.bom.gov.au/fwo/IDT60801/IDT60801.95956.axf

JavaScript Object Notation format (JSON) in row-major order
http://www.bom.gov.au/fwo/IDT60801/IDT60801.95956.json

Data quality

Most of these data are generated automatically and are frequently updated. Quality checks on data are not normally performed. It is possible for incorrect values to appear. Refer to information at About Latest Weather Observations and please check the disclaimer before using these data.